Warnock, OH (43967)

5:19 PM EDT on August 29, 2014 (GMT -0400)
Shadyside, Ohio | Change Station
CLOSE
Current Station
Personal Weather Station
Location: Shadyside, OH
Elevation: 669 ft
Nearby Weather Stations

Elev 669 ft 39.98 °N, 80.74 °W | Updated 7 seconds ago

Clear
Clear
85.7 °F
Feels Like 85 °F
N
0.0
Wind Variable Wind from NNE
Gusts 1.0 mph

Today
High -- | Low -- °F
--% Chance of Precip.
Yesterday
High -- | Low -- °F
Precip. -- in
6:48 AM 7:59 PM
Waxing Crescent, 16% visible
Pressure 30.10 in
Visibility 10.0 miles
Clouds Clear
Heat Index 85 °F
Dew Point 59 °F
Humidity 41%
Rainfall 0.00 in
Snow Depth Not available.
UV 4 out of 12
Pollen 9.50 out of 12
Air Quality Not available.
Flu Activity Not available.
METAR KHLG 292053Z VRB05KT 10SM CLR 27/12 A3011 RMK AO2 SLP192 T02670117 56013

More Conditions Fewer Conditions

Pressure 30.10 in
Visibility 10.0 miles
Clouds Clear
Heat Index 85 °F
Dew Point 59 °F
Humidity 41%
Rainfall 0.00 in
Snow Depth Not available.
UV 4 out of 12
Pollen 9.50 out of 12
Air Quality Not available.
Flu Activity Not available.
METAR KHLG 292053Z VRB05KT 10SM CLR 27/12 A3011 RMK AO2 SLP192 T02670117 56013

More Conditions Fewer Conditions

10-Day Weather Forecast

Almanac

Astronomy

Aug. 29, 2014 Rise Set
Actual Time 6:48 AM EDT 7:59 PM EDT
Civil Twilight 6:20 AM EDT 8:27 PM EDT
Nautical Twilight 5:47 AM EDT 9:01 PM EDT
Astronomical Twilight 5:12 AM EDT 9:36 PM EDT
Moon 10:36 AM EDT 9:56 PM EDT
Length of Visible Light 14h 07m
Length of Day
13h 11m
Tomorrow will be 2m 31s shorter.
Waxing Crescent, 16% of the Moon is Illuminated
Today
Waxing Crescent
Sep 2
First Quarter
Sep 8
Full
Sep 15
Last Quarter
Sep 24
New

Today's Extremes

State Highs State Lows

Community

WunderPhotos

Upload Photos

1,748,348 photos uploaded!

Nearby

Snow Depth

Station Depth Elevation
No new snow has been reported.

Earthquake Activity

City Distance Mag. Time & Date
No recent earthquake activity has been reported nearby.
Minimum magnitude displayed is 2.5.

Coastal Water Temperatures

Place Temperature
No Stations Reporting

Nearby Weather Stations